Monte Hermoso, Argentina
Current Conditions -  °F | °C
As of 4:00 PM on Thursday 27 Nov 2014 (Local Time) from SAZM Reporting Station
Clear Clear  
Wind Chill: 66°   Ceiling: Unl
Heat Index: 66°   Visibility: 6mi
Dew Point: 52°   Wind: 14mph
Humidity: 60%   Direction: 140°SE
Pressure: 30"   Gusts: NA
Location:  38.93°S, 61.35°W
Report Text: SAZM 271900Z 14012KT CAVOK 19/11 Q1016
Loading
Personal Weather Stations






























Interactive Weather Map New forecast layout! Learn more

10-Day Weather Forecast

Advertisements
Track Severe Weather on mobile